Time;durP1;ratioP1;P1;durP2;ratioP2;P2;SDS_P1;SDS_P2;PMS_P1;PMS_P2;Temp;Humidity;BMP_temperature;BMP_pressure;BME280_temperature;BME280_humidity;BME280_pressure;Samples;Min_cycle;Max_cycle;Signal;HPM_P1;HPM_P2
2021/06/14 00:00:26;;;;;;;5.70;2.80;;;;;;;11.43;100.00;96510.31;1031202;28;20014;-68
2021/06/14 00:00:57;;;;;;;3.20;2.90;;;;;;;11.44;100.00;96517.19;1023363;28;20357;-68
2021/06/14 00:01:30;;;;;;;3.85;2.80;;;;;;;11.47;100.00;96519.31;1023610;28;20641;-67
2021/06/14 00:02:01;;;;;;;6.20;2.80;;;;;;;11.47;100.00;96524.56;1023397;29;20055;-68
2021/06/14 00:02:31;;;;;;;6.47;2.75;;;;;;;11.48;100.00;96520.91;1023541;28;20259;-67
2021/06/14 00:03:02;;;;;;;3.53;2.60;;;;;;;11.47;100.00;96519.31;1027101;28;20014;-67
2021/06/14 00:03:32;;;;;;;4.03;2.78;;;;;;;11.47;100.00;96519.31;1023535;28;20015;-66
2021/06/14 00:04:03;;;;;;;4.85;2.88;;;;;;;11.42;100.00;96505.31;1018439;29;20074;-67
2021/06/14 00:04:34;;;;;;;3.88;2.80;;;;;;;11.43;100.00;96509.53;1015333;29;20405;-67
2021/06/14 00:05:06;;;;;;;5.50;2.92;;;;;;;11.44;100.00;96503.25;1015394;29;20284;-65
2021/06/14 00:05:43;;;;;;;4.47;2.47;;;;;;;11.48;100.00;96515.63;1022626;29;20712;-67
2021/06/14 00:06:14;;;;;;;6.25;2.58;;;;;;;11.51;100.00;96515.16;1031154;28;20258;-68
2021/06/14 00:06:44;;;;;;;4.60;2.88;;;;;;;11.47;100.00;96508.81;1032303;28;20264;-67
2021/06/14 00:07:16;;;;;;;6.13;2.80;;;;;;;11.51;100.00;96515.16;1027097;28;20035;-68
2021/06/14 00:07:47;;;;;;;6.35;2.85;;;;;;;11.51;100.00;96515.16;1023417;28;20135;-68
2021/06/14 00:08:19;;;;;;;6.55;3.03;;;;;;;11.49;100.00;96517.22;1026206;28;20320;-68
2021/06/14 00:08:49;;;;;;;3.97;2.80;;;;;;;11.52;100.00;96511.47;1024045;28;20030;-68
2021/06/14 00:09:22;;;;;;;5.93;2.88;;;;;;;11.50;100.00;96513.56;1022835;28;20274;-68
2021/06/14 00:09:53;;;;;;;5.38;2.90;;;;;;;11.51;100.00;96520.41;1027162;28;20019;-67
2021/06/14 00:10:24;;;;;;;4.03;2.65;;;;;;;11.45;100.00;96521.38;1028015;28;20270;-67
2021/06/14 00:10:56;;;;;;;6.35;3.05;;;;;;;11.47;100.00;96521.16;1023692;28;20054;-67
2021/06/14 00:11:31;;;;;;;6.90;2.83;;;;;;;11.47;100.00;96529.03;1031177;28;20265;-68
2021/06/14 00:12:02;;;;;;;5.45;3.03;;;;;;;11.40;100.00;96517.91;1031256;28;20261;-67
2021/06/14 00:12:33;;;;;;;4.15;2.80;;;;;;;11.45;100.00;96518.75;1028211;28;20286;-68
2021/06/14 00:13:04;;;;;;;4.22;3.05;;;;;;;11.43;100.00;96523.47;1027323;28;20301;-67
2021/06/14 00:13:36;;;;;;;5.60;2.85;;;;;;;11.43;100.00;96522.66;1019222;29;20024;-68
2021/06/14 00:14:06;;;;;;;4.90;2.70;;;;;;;11.41;100.00;96524.78;1019328;29;20273;-68
2021/06/14 00:14:36;;;;;;;7.78;3.00;;;;;;;11.38;100.00;96526.06;1022482;28;20329;-67
2021/06/14 00:15:07;;;;;;;7.53;3.60;;;;;;;11.37;100.00;96524.47;1026821;28;20057;-67
2021/06/14 00:15:38;;;;;;;6.50;3.00;;;;;;;11.28;100.00;96523.31;1027355;28;20034;-68
2021/06/14 00:16:09;;;;;;;8.15;3.55;;;;;;;11.32;100.00;96524.41;1022519;28;20701;-67
2021/06/14 00:16:39;;;;;;;4.90;2.83;;;;;;;11.29;100.00;96522.28;1023184;28;20023;-68
2021/06/14 00:17:10;;;;;;;6.90;4.05;;;;;;;11.19;100.00;96517.72;1023624;28;20024;-67
2021/06/14 00:17:41;;;;;;;5.25;2.90;;;;;;;11.25;100.00;96529.06;1022962;28;20031;-67
2021/06/14 00:18:11;;;;;;;8.98;3.45;;;;;;;11.23;100.00;96525.88;1023280;28;20038;-69
2021/06/14 00:18:42;;;;;;;7.28;3.47;;;;;;;11.17;100.00;96522.44;1026883;28;20118;-67
2021/06/14 00:19:12;;;;;;;6.75;3.13;;;;;;;11.19;100.00;96519.53;1027473;28;20046;-68
2021/06/14 00:19:44;;;;;;;8.10;3.65;;;;;;;11.18;100.00;96528.47;1034688;28;20026;-67
2021/06/14 00:20:15;;;;;;;5.22;3.03;;;;;;;11.15;100.00;96527.13;1035487;28;20087;-68
2021/06/14 00:20:53;;;;;;;6.32;3.58;;;;;;;11.14;100.00;96524.75;1030940;28;20826;-68
2021/06/14 00:21:23;;;;;;;5.88;3.83;;;;;;;11.05;100.00;96512.03;1019579;29;20040;-68
2021/06/14 00:21:54;;;;;;;7.32;3.50;;;;;;;11.10;100.00;96527.09;1027148;28;20293;-68
2021/06/14 00:22:24;;;;;;;3.95;3.00;;;;;;;11.07;100.00;96525.75;1027369;28;20365;-68
2021/06/14 00:22:55;;;;;;;6.50;3.25;;;;;;;11.06;100.00;96520.72;1025495;28;20034;-67
2021/06/14 00:23:27;;;;;;;7.63;3.40;;;;;;;11.04;100.00;96520.97;1023387;28;20417;-67
2021/06/14 00:23:57;;;;;;;5.22;3.17;;;;;;;11.05;100.00;96529.63;1031677;28;20037;-68
2021/06/14 00:24:28;;;;;;;8.45;3.15;;;;;;;11.03;100.00;96524.66;1019330;28;20661;-68
2021/06/14 00:24:58;;;;;;;5.65;3.60;;;;;;;10.97;100.00;96523.00;1023213;29;20092;-69
2021/06/14 00:25:30;;;;;;;8.18;3.40;;;;;;;10.96;100.00;96520.59;1023228;29;20031;-67
2021/06/14 00:26:01;;;;;;;7.07;3.35;;;;;;;10.97;100.00;96527.47;1027004;28;20022;-68
2021/06/14 00:26:31;;;;;;;4.35;2.75;;;;;;;10.94;100.00;96522.69;1030946;28;20276;-69
2021/06/14 00:27:02;;;;;;;5.50;3.70;;;;;;;10.95;100.00;96527.69;1034766;28;20332;-67
2021/06/14 00:27:33;;;;;;;10.73;3.60;;;;;;;10.96;100.00;96528.47;1027297;28;20034;-67
2021/06/14 00:28:04;;;;;;;4.90;3.35;;;;;;;10.90;100.00;96519.75;1027494;28;20038;-68
2021/06/14 00:28:34;;;;;;;5.40;3.40;;;;;;;10.93;100.00;96529.78;1023304;28;20084;-67
2021/06/14 00:29:05;;;;;;;6.57;3.03;;;;;;;10.86;100.00;96518.66;1027154;28;20029;-67
2021/06/14 00:29:38;;;;;;;5.57;3.50;;;;;;;10.91;100.00;96526.59;1027989;28;20132;-68
2021/06/14 00:30:12;;;;;;;4.75;3.20;;;;;;;10.90;100.00;96525.03;1027138;28;20050;-67
2021/06/14 00:30:44;;;;;;;7.50;3.50;;;;;;;10.90;100.00;96524.19;1023295;28;20772;-69
2021/06/14 00:31:14;;;;;;;5.38;3.58;;;;;;;10.92;100.00;96528.19;1022086;28;20286;-68
2021/06/14 00:31:44;;;;;;;5.53;3.40;;;;;;;10.87;100.00;96519.47;1023711;28;20608;-69
2021/06/14 00:32:18;;;;;;;7.05;3.72;;;;;;;10.89;100.00;96523.41;1024044;28;20035;-68
2021/06/14 00:32:51;;;;;;;5.50;3.38;;;;;;;10.84;100.00;96515.50;1025527;28;20651;-68
2021/06/14 00:33:22;;;;;;;10.75;3.90;;;;;;;10.84;100.00;96520.75;1026196;28;20077;-68
2021/06/14 00:33:52;;;;;;;6.18;3.70;;;;;;;10.88;100.00;96526.28;1024076;28;20996;-67
2021/06/14 00:34:22;;;;;;;7.28;3.67;;;;;;;10.86;100.00;96523.91;1023726;28;20386;-68
2021/06/14 00:34:53;;;;;;;5.85;3.30;;;;;;;10.84;100.00;96526.78;1026825;28;20400;-67
2021/06/14 00:35:24;;;;;;;4.57;3.25;;;;;;;10.77;100.00;96518.28;1030838;28;20084;-67
2021/06/14 00:35:54;;;;;;;5.35;3.13;;;;;;;10.85;100.00;96524.94;1023164;29;20101;-68
2021/06/14 00:36:25;;;;;;;6.13;3.50;;;;;;;10.85;100.00;96523.09;1021634;28;20031;-67
2021/06/14 00:36:55;;;;;;;4.95;3.25;;;;;;;10.84;100.00;96526.78;1023191;29;20035;-68
2021/06/14 00:37:26;;;;;;;6.00;3.33;;;;;;;10.83;100.00;96524.38;1019262;29;20038;-69
2021/06/14 00:37:56;;;;;;;5.00;2.92;;;;;;;10.81;100.00;96523.84;1019201;29;20028;-68
2021/06/14 00:38:32;;;;;;;7.55;3.20;;;;;;;10.81;100.00;96521.22;1022621;28;20070;-67
2021/06/14 00:39:03;;;;;;;7.78;3.50;;;;;;;10.80;100.00;96519.66;1023910;28;20019;-67
2021/06/14 00:39:34;;;;;;;13.68;4.03;;;;;;;10.72;100.00;96509.56;1023356;28;20361;-66
2021/06/14 00:40:05;;;;;;;9.48;3.97;;;;;;;10.79;100.00;96520.66;1024128;28;20305;-68
2021/06/14 00:40:35;;;;;;;7.07;3.70;;;;;;;10.77;100.00;96526.16;1027700;28;20069;-68
2021/06/14 00:41:06;;;;;;;11.70;3.95;;;;;;;10.79;100.00;96518.03;1019740;28;21044;-66
2021/06/14 00:41:36;;;;;;;7.13;3.42;;;;;;;10.72;100.00;96517.44;1017832;28;20028;-68
2021/06/14 00:42:07;;;;;;;6.60;3.30;;;;;;;10.77;100.00;96526.16;1022788;29;20497;-65
2021/06/14 00:42:37;;;;;;;6.88;3.60;;;;;;;10.77;100.00;96514.88;1023115;29;20426;-66
2021/06/14 00:43:08;;;;;;;7.20;3.55;;;;;;;10.70;100.00;96507.19;1023569;28;20420;-68
2021/06/14 00:43:39;;;;;;;20.98;3.80;;;;;;;10.66;100.00;96507.91;1023236;28;20441;-68
2021/06/14 00:44:10;;;;;;;9.13;3.78;;;;;;;10.70;100.00;96517.69;1019608;29;20549;-68
2021/06/14 00:44:40;;;;;;;6.47;3.75;;;;;;;10.72;100.00;96512.19;1019428;29;20032;-71
2021/06/14 00:45:15;;;;;;;16.67;3.92;;;;;;;10.75;100.00;96522.19;1018898;29;20561;-68
2021/06/14 00:45:47;;;;;;;8.50;3.80;;;;;;;10.73;100.00;96524.25;1019977;28;20562;-66
2021/06/14 00:46:18;;;;;;;12.52;4.43;;;;;;;10.71;100.00;96519.25;1026513;28;20779;-68
2021/06/14 00:46:48;;;;;;;16.92;5.05;;;;;;;10.68;100.00;96519.75;1024862;28;20275;-68
2021/06/14 00:47:19;;;;;;;10.02;3.50;;;;;;;10.70;100.00;96514.28;1027798;28;20081;-67
2021/06/14 00:47:50;;;;;;;6.25;3.20;;;;;;;10.64;100.00;96507.38;1031203;28;20510;-67
2021/06/14 00:48:20;;;;;;;5.03;3.15;;;;;;;10.68;100.00;96516.34;1027192;28;20117;-67
2021/06/14 00:48:51;;;;;;;5.65;3.28;;;;;;;10.70;100.00;96514.28;1023031;29;20023;-67
2021/06/14 00:49:21;;;;;;;9.55;3.30;;;;;;;10.71;100.00;96516.63;1027244;28;20039;-65
2021/06/14 00:49:52;;;;;;;6.95;3.90;;;;;;;10.71;100.00;96515.84;1027176;28;20050;-68
2021/06/14 00:50:39;;;;;;;5.57;3.35;;;;;;;10.70;100.00;96520.31;1031135;28;20042;-68
2021/06/14 00:51:09;;;;;;;9.07;3.10;;;;;;;10.66;100.00;96510.53;1030574;28;20161;-66
2021/06/14 00:51:40;;;;;;;7.18;3.78;;;;;;;10.68;100.00;96518.97;1022924;29;20669;-67
2021/06/14 00:52:10;;;;;;;9.52;3.78;;;;;;;10.67;100.00;96510.28;1025017;28;20031;-68
2021/06/14 00:52:41;;;;;;;5.95;3.58;;;;;;;10.65;100.00;96514.19;1023270;29;20570;-68
2021/06/14 00:53:20;;;;;;;5.53;3.22;;;;;;;10.59;100.00;96503.63;1023177;29;20039;-67
2021/06/14 00:53:57;;;;;;;5.43;3.20;;;;;;;10.67;100.00;96509.50;1022554;29;20198;-68
2021/06/14 00:54:27;;;;;;;6.45;3.85;;;;;;;10.73;100.00;96513.75;1023100;29;20273;-67
2021/06/14 00:54:57;;;;;;;6.65;3.53;;;;;;;10.79;100.00;96510.16;1025003;28;20274;-67
2021/06/14 00:55:28;;;;;;;4.25;3.25;;;;;;;10.80;100.00;96504.69;1027706;28;20061;-67
2021/06/14 00:56:03;;;;;;;8.93;3.47;;;;;;;10.88;100.00;96511.31;1028852;28;20031;-65
2021/06/14 00:56:34;;;;;;;5.32;3.20;;;;;;;10.90;100.00;96511.88;1028060;28;20377;-68
2021/06/14 00:57:05;;;;;;;9.15;3.80;;;;;;;10.93;100.00;96508.78;1023777;28;20262;-67
2021/06/14 00:57:35;;;;;;;7.45;3.67;;;;;;;10.96;100.00;96504.84;1020025;29;20019;-67
2021/06/14 00:58:05;;;;;;;5.47;4.10;;;;;;;10.90;100.00;96497.94;1023163;29;20781;-67
2021/06/14 00:58:40;;;;;;;6.43;3.85;;;;;;;10.99;100.00;96502.53;1026805;28;20657;-65
2021/06/14 00:59:11;;;;;;;7.63;3.95;;;;;;;11.00;100.00;96506.75;1023152;29;20026;-69
2021/06/14 00:59:41;;;;;;;11.13;4.38;;;;;;;10.96;100.00;96497.75;1020787;28;20326;-68
2021/06/14 01:00:13;;;;;;;8.73;4.18;;;;;;;10.96;100.00;96495.13;1023554;28;20042;-67
2021/06/14 01:00:44;;;;;;;7.60;4.20;;;;;;;11.02;100.00;96504.66;1026417;28;20492;-67
2021/06/14 01:01:14;;;;;;;8.30;4.40;;;;;;;11.02;100.00;96507.28;1022774;28;20330;-67
2021/06/14 01:01:47;;;;;;;9.80;4.63;;;;;;;11.04;100.00;96513.09;1027654;28;20023;-66
2021/06/14 01:02:17;;;;;;;6.45;4.05;;;;;;;11.06;100.00;96504.94;1035536;28;20494;-67
2021/06/14 01:02:48;;;;;;;11.35;4.15;;;;;;;11.04;100.00;96509.69;1038608;28;20264;-67
2021/06/14 01:03:18;;;;;;;6.55;4.32;;;;;;;11.04;100.00;96507.84;1035534;28;20038;-67
2021/06/14 01:03:49;;;;;;;8.65;4.30;;;;;;;11.04;100.00;96502.59;1036520;28;20397;-68
2021/06/14 01:04:20;;;;;;;8.73;4.10;;;;;;;11.04;100.00;96499.97;1038653;28;20029;-68
2021/06/14 01:04:50;;;;;;;8.82;4.00;;;;;;;11.04;100.00;96513.09;1035301;28;20017;-67
2021/06/14 01:05:21;;;;;;;8.45;4.15;;;;;;;11.01;100.00;96505.69;1034927;28;20025;-69
2021/06/14 01:05:57;;;;;;;5.95;3.90;;;;;;;11.02;100.00;96503.88;1026833;28;20034;-68
2021/06/14 01:06:28;;;;;;;6.63;3.80;;;;;;;10.97;100.00;96507.25;1023980;28;20142;-67
2021/06/14 01:06:58;;;;;;;5.75;3.88;;;;;;;10.98;100.00;96503.56;1022549;29;20714;-67
2021/06/14 01:07:28;;;;;;;6.15;4.30;;;;;;;10.95;100.00;96504.06;1023722;28;20077;-67
2021/06/14 01:07:59;;;;;;;5.03;3.55;;;;;;;10.96;100.00;96495.13;1031010;28;20027;-67
2021/06/14 01:08:32;;;;;;;7.72;3.90;;;;;;;10.95;100.00;96504.06;1030959;28;20201;-67
2021/06/14 01:09:03;;;;;;;6.70;3.97;;;;;;;10.94;100.00;96502.47;1030814;28;20126;-68
2021/06/14 01:09:33;;;;;;;7.20;4.30;;;;;;;10.93;100.00;96505.34;1030978;28;20269;-68
2021/06/14 01:10:05;;;;;;;4.88;3.45;;;;;;;10.91;100.00;96500.34;1027018;28;20428;-67
2021/06/14 01:10:36;;;;;;;6.35;3.95;;;;;;;10.85;100.00;96490.81;1022923;28;20540;-67
2021/06/14 01:11:12;;;;;;;6.75;3.80;;;;;;;10.87;100.00;96495.84;1021530;28;20271;-65
2021/06/14 01:11:50;;;;;;;4.80;3.60;;;;;;;10.84;100.00;96494.47;1027308;28;20369;-68
2021/06/14 01:12:22;;;;;;;5.82;3.55;;;;;;;10.83;100.00;96498.94;1026959;28;20276;-67
2021/06/14 01:13:08;;;;;;;7.82;3.95;;;;;;;10.84;100.00;96494.47;1024657;28;20325;-68
2021/06/14 01:13:41;;;;;;;5.68;3.40;;;;;;;10.81;100.00;96494.97;1023026;28;20266;-68
2021/06/14 01:14:18;;;;;;;6.93;3.63;;;;;;;10.74;100.00;96483.88;1028181;28;20278;-67
2021/06/14 01:15:00;;;;;;;5.90;3.30;;;;;;;10.78;100.00;96490.22;1022769;29;20263;-68
2021/06/14 01:15:30;;;;;;;8.40;3.97;;;;;;;10.78;100.00;96490.22;1019125;29;20307;-68
2021/06/14 01:16:14;;;;;;;4.38;3.33;;;;;;;10.70;100.00;96478.31;1018948;29;20594;-68
2021/06/14 01:17:04;;;;;;;5.88;3.45;;;;;;;10.74;100.00;96491.75;1023044;29;20026;-67
2021/06/14 01:17:55;;;;;;;7.35;3.50;;;;;;;10.72;100.00;96488.56;1023642;28;20263;-67
2021/06/14 01:18:29;;;;;;;5.70;3.42;;;;;;;10.65;100.00;96482.69;1022899;29;20354;-67
2021/06/14 01:19:47;;;;;;;5.07;3.38;;;;;;;10.68;100.00;96483.00;1018763;29;20264;-69
2021/06/14 01:20:42;;;;;;;7.25;3.50;;;;;;;10.68;100.00;96484.84;1024988;28;20338;-67
2021/06/14 01:21:19;;;;;;;10.90;3.88;;;;;;;10.60;100.00;96472.94;1036480;28;20245;-67
2021/06/14 01:22:22;;;;;;;6.93;3.55;;;;;;;10.65;100.00;96485.31;1023031;28;20701;-68
2021/06/14 01:22:59;;;;;;;6.18;3.50;;;;;;;10.64;100.00;96486.38;1017546;29;20347;-67
2021/06/14 01:23:47;;;;;;;5.25;3.17;;;;;;;10.63;100.00;96482.97;1022602;28;20257;-67
2021/06/14 01:24:40;;;;;;;6.82;3.85;;;;;;;10.65;100.00;96485.31;1035022;28;20068;-68
2021/06/14 01:25:16;;;;;;;5.25;3.22;;;;;;;10.64;100.00;96478.50;1015116;29;20275;-67
2021/06/14 01:25:52;;;;;;;6.70;3.92;;;;;;;10.65;100.00;96480.88;1014554;29;20299;-67
2021/06/14 01:26:23;;;;;;;8.23;3.92;;;;;;;10.66;100.00;96481.66;1026758;28;20270;-67
2021/06/14 01:27:02;;;;;;;7.00;4.03;;;;;;;10.65;100.00;96482.69;1020542;29;20275;-68
2021/06/14 01:27:43;;;;;;;5.75;3.90;;;;;;;10.59;100.00;96468.72;1024549;28;20271;-67
2021/06/14 01:28:13;;;;;;;;;;;;;;;10.64;100.00;96483.75;1023520;29;20580;-66
2021/06/14 01:28:47;;;;;;;6.70;3.58;;;;;;;10.64;100.00;96481.91;1023035;29;19926;-68
2021/06/14 01:29:18;;;;;;;4.90;3.75;;;;;;;10.62;100.00;96478.72;1025576;28;20046;-68
2021/06/14 01:29:48;;;;;;;8.07;4.10;;;;;;;10.62;100.00;96476.88;1020676;28;20272;-68
2021/06/14 01:30:24;;;;;;;6.78;3.90;;;;;;;10.57;100.00;96468.97;1019207;29;20030;-67
2021/06/14 01:30:54;;;;;;;5.70;3.78;;;;;;;10.61;100.00;96477.16;1022989;28;20458;-67
2021/06/14 01:31:26;;;;;;;7.78;3.83;;;;;;;10.57;100.00;96471.59;1025957;28;20250;-65
2021/06/14 01:31:57;;;;;;;5.07;3.65;;;;;;;10.64;100.00;96479.28;1027088;28;20019;-67
2021/06/14 01:32:28;;;;;;;5.88;3.92;;;;;;;10.62;100.00;96476.88;1023347;28;20314;-67
2021/06/14 01:33:02;;;;;;;7.45;3.72;;;;;;;10.65;100.00;96480.06;1024107;28;20349;-68
2021/06/14 01:33:33;;;;;;;6.28;3.92;;;;;;;10.59;100.00;96474.75;1023762;28;20035;-68
2021/06/14 01:34:03;;;;;;;6.63;3.92;;;;;;;10.67;100.00;96478.81;1023576;28;20362;-66
2021/06/14 01:34:36;;;;;;;6.45;3.88;;;;;;;10.62;100.00;96465.59;1026700;28;20465;-68
2021/06/14 01:35:07;;;;;;;6.70;3.58;;;;;;;10.68;100.00;96476.97;1022775;29;20027;-67
2021/06/14 01:35:46;;;;;;;6.47;3.60;;;;;;;10.70;100.00;96477.53;1018992;29;20264;-68
2021/06/14 01:36:22;;;;;;;7.22;3.50;;;;;;;10.67;100.00;96472.75;1024566;28;20274;-68
2021/06/14 01:36:59;;;;;;;11.05;3.80;;;;;;;10.65;100.00;96465.13;1022573;29;20653;-68
2021/06/14 01:37:30;;;;;;;4.60;3.65;;;;;;;10.69;100.00;96476.72;1025572;28;20265;-67
2021/06/14 01:38:01;;;;;;;7.88;4.32;;;;;;;10.71;100.00;96471.22;1022551;28;20270;-68
2021/06/14 01:38:31;;;;;;;6.55;3.72;;;;;;;10.68;100.00;96469.09;1025401;28;20516;-67
2021/06/14 01:39:03;;;;;;;11.07;3.83;;;;;;;10.67;100.00;96464.88;1030150;28;20044;-68
2021/06/14 01:39:36;;;;;;;6.95;3.90;;;;;;;10.71;100.00;96466.78;1023432;28;20017;-69
2021/06/14 01:40:08;;;;;;;6.65;3.60;;;;;;;10.71;100.00;96466.78;1026254;28;20266;-67
2021/06/14 01:40:38;;;;;;;7.15;3.97;;;;;;;10.72;100.00;96464.94;1023945;28;20286;-67
2021/06/14 01:41:14;;;;;;;7.65;3.80;;;;;;;10.72;100.00;96467.56;1019467;29;20255;-67
2021/06/14 01:41:47;;;;;;;7.60;3.70;;;;;;;10.73;100.00;96466.50;1018878;29;20028;-66
2021/06/14 01:42:18;;;;;;;4.57;3.72;;;;;;;10.73;100.00;96474.38;1020266;29;20255;-67
2021/06/14 01:42:50;;;;;;;5.25;3.30;;;;;;;10.68;100.00;96459.38;1018704;29;20260;-68
2021/06/14 01:43:23;;;;;;;4.63;3.50;;;;;;;10.67;100.00;96462.25;1026959;28;20077;-67
2021/06/14 01:43:53;;;;;;;6.20;3.40;;;;;;;10.72;100.00;96478.84;1026801;28;20258;-67
2021/06/14 01:44:24;;;;;;;5.78;3.75;;;;;;;10.70;100.00;96467.81;1026935;28;20274;-69
2021/06/14 01:44:55;;;;;;;7.18;3.45;;;;;;;10.74;100.00;96479.41;1022256;28;20027;-68
2021/06/14 01:45:25;;;;;;;4.78;3.40;;;;;;;10.76;100.00;96476.53;1020502;29;20042;-66
2021/06/14 01:46:03;;;;;;;7.35;3.88;;;;;;;10.71;100.00;96463.34;1022288;28;20034;-65
2021/06/14 01:46:36;;;;;;;5.35;3.75;;;;;;;10.80;100.00;96472.41;1018789;29;20079;-67
2021/06/14 01:47:06;;;;;;;7.40;3.30;;;;;;;10.80;100.00;96477.66;1018645;29;20669;-67
2021/06/14 01:47:37;;;;;;;9.15;4.13;;;;;;;10.81;100.00;96473.97;1018692;29;20271;-67
2021/06/14 01:48:08;;;;;;;5.45;3.70;;;;;;;10.82;100.00;96471.09;1018514;29;20024;-67
2021/06/14 01:48:39;;;;;;;4.53;3.58;;;;;;;10.80;100.00;96472.41;1019230;29;20522;-67
2021/06/14 01:49:10;;;;;;;6.88;3.45;;;;;;;10.80;100.00;96473.19;1018372;29;20267;-65
2021/06/14 01:49:40;;;;;;;4.32;3.58;;;;;;;10.81;100.00;96473.97;1023349;28;20464;-67
2021/06/14 01:50:11;;;;;;;5.20;3.58;;;;;;;10.81;100.00;96471.34;1022765;29;20027;-67
2021/06/14 01:50:41;;;;;;;5.72;3.47;;;;;;;10.80;100.00;96467.13;1030964;28;20030;-67
2021/06/14 01:51:12;;;;;;;6.18;4.20;;;;;;;10.71;100.00;96463.34;1029398;28;20104;-68
2021/06/14 01:51:43;;;;;;;6.82;3.60;;;;;;;10.78;100.00;96471.84;1035086;28;20393;-67
2021/06/14 01:52:14;;;;;;;8.02;4.15;;;;;;;10.76;100.00;96466.81;1022718;28;20455;-68
2021/06/14 01:52:44;;;;;;;8.15;4.03;;;;;;;10.75;100.00;96467.84;1026690;28;20030;-68
2021/06/14 01:53:15;;;;;;;7.50;4.13;;;;;;;10.68;100.00;96453.34;1022850;29;20756;-67
2021/06/14 01:54:07;;;;;;;5.88;3.97;;;;;;;10.77;100.00;96472.88;1022898;29;20027;-66
2021/06/14 01:54:37;;;;;;;6.95;3.95;;;;;;;10.76;100.00;96460.78;1018362;29;20666;-67
2021/06/14 01:55:10;;;;;;;7.25;4.05;;;;;;;10.74;100.00;96463.66;1022319;29;20259;-67
2021/06/14 01:55:41;;;;;;;5.22;4.07;;;;;;;10.74;100.00;96470.75;1026017;28;20054;-68
2021/06/14 01:56:12;;;;;;;6.78;3.78;;;;;;;10.72;100.00;96460.47;1020020;29;20270;-67
2021/06/14 01:56:44;;;;;;;5.78;3.72;;;;;;;10.71;100.00;96458.09;1019756;28;20019;-68
2021/06/14 01:57:17;;;;;;;8.32;4.25;;;;;;;10.67;100.00;96451.75;1027281;28;20073;-68
2021/06/14 01:57:48;;;;;;;6.78;4.13;;;;;;;10.73;100.00;96456.00;1032908;28;20352;-67
2021/06/14 01:58:18;;;;;;;6.57;4.43;;;;;;;10.70;100.00;96456.53;1035037;28;20265;-67
2021/06/14 01:58:51;;;;;;;5.60;4.25;;;;;;;10.71;100.00;96458.91;1026642;28;20030;-67
2021/06/14 01:59:28;;;;;;;7.32;4.05;;;;;;;10.70;100.00;96459.94;1022442;29;20046;-67
2021/06/14 01:59:58;;;;;;;7.72;4.38;;;;;;;10.61;100.00;96446.44;1021609;29;21936;-67
2021/06/14 02:00:29;;;;;;;8.80;4.50;;;;;;;10.68;100.00;96459.38;1022908;29;20318;-67
2021/06/14 02:01:00;;;;;;;9.25;4.10;;;;;;;10.65;100.00;96451.22;1021804;28;20023;-64
2021/06/14 02:01:30;;;;;;;5.35;3.90;;;;;;;10.67;100.00;96459.63;1022634;29;20051;-67
2021/06/14 02:02:03;;;;;;;5.45;4.00;;;;;;;10.69;100.00;96457.53;1026795;28;20418;-67
2021/06/14 02:02:33;;;;;;;6.43;4.82;;;;;;;10.64;100.00;96454.88;1030958;28;20026;-67
2021/06/14 02:03:04;;;;;;;6.80;4.30;;;;;;;10.67;100.00;96457.00;1029248;28;20273;-67
2021/06/14 02:03:37;;;;;;;7.50;4.70;;;;;;;10.66;100.00;96455.41;1027177;28;20027;-67
2021/06/14 02:04:08;;;;;;;7.78;4.40;;;;;;;10.61;100.00;96445.66;1026844;28;20277;-68
2021/06/14 02:04:39;;;;;;;12.93;4.65;;;;;;;10.64;100.00;96453.03;1026686;28;20042;-68
2021/06/14 02:05:10;;;;;;;6.80;3.80;;;;;;;10.65;100.00;96453.81;1026496;28;20050;-67
2021/06/14 02:05:41;;;;;;;7.40;4.20;;;;;;;10.60;100.00;96442.25;1027046;28;20748;-68
2021/06/14 02:06:11;;;;;;;5.65;4.40;;;;;;;10.63;100.00;96456.72;1022563;28;20015;-68
2021/06/14 02:06:44;;;;;;;8.07;4.68;;;;;;;10.65;100.00;96448.59;1030747;28;20281;-67
2021/06/14 02:07:15;;;;;;;8.52;4.82;;;;;;;10.61;100.00;96456.16;1026427;28;20034;-67
2021/06/14 02:07:46;;;;;;;5.90;4.57;;;;;;;10.63;100.00;96454.09;1026984;28;20779;-67
2021/06/14 02:08:17;;;;;;;6.50;4.10;;;;;;;10.62;100.00;96447.22;1026064;28;20473;-68
2021/06/14 02:08:48;;;;;;;6.65;4.22;;;;;;;10.61;100.00;96449.06;1030734;28;20060;-67
2021/06/14 02:09:21;;;;;;;5.15;4.22;;;;;;;10.60;100.00;96452.75;1026878;28;20759;-68
2021/06/14 02:09:53;;;;;;;8.13;4.50;;;;;;;10.62;100.00;96458.50;1019679;29;20433;-67
2021/06/14 02:10:23;;;;;;;5.10;4.03;;;;;;;10.62;100.00;96447.22;1022732;29;20306;-67
2021/06/14 02:10:53;;;;;;;5.82;4.10;;;;;;;10.61;100.00;96451.69;1026719;28;20842;-67
2021/06/14 02:11:24;;;;;;;6.13;4.55;;;;;;;10.61;100.00;96449.06;1023172;28;20054;-68
2021/06/14 02:11:57;;;;;;;7.30;4.35;;;;;;;10.59;100.00;96447.72;1027186;28;20129;-68
2021/06/14 02:12:28;;;;;;;6.00;4.15;;;;;;;10.62;100.00;96450.66;1026519;28;20461;-67
2021/06/14 02:12:58;;;;;;;6.88;3.95;;;;;;;10.62;100.00;96445.41;1034332;28;20297;-68
2021/06/14 02:13:29;;;;;;;8.38;4.20;;;;;;;10.62;100.00;96447.22;1034869;28;20273;-68
2021/06/14 02:13:59;;;;;;;6.25;4.43;;;;;;;10.60;100.00;96447.50;1026948;28;20105;-67
2021/06/14 02:14:31;;;;;;;8.63;4.18;;;;;;;10.53;100.00;96439.00;1022946;29;20047;-68
2021/06/14 02:15:02;;;;;;;9.75;4.60;;;;;;;10.58;100.00;96449.56;1025793;28;20018;-68
2021/06/14 02:15:35;;;;;;;6.47;4.18;;;;;;;10.55;100.00;96444.78;1026879;28;20262;-67
2021/06/14 02:16:08;;;;;;;9.27;4.68;;;;;;;10.51;100.00;96438.44;1023957;28;20026;-67
2021/06/14 02:16:38;;;;;;;6.45;4.63;;;;;;;10.57;100.00;96442.72;1021875;28;20256;-66
2021/06/14 02:17:13;;;;;;;8.32;4.70;;;;;;;10.53;100.00;96436.38;1022796;29;20019;-68
2021/06/14 02:17:44;;;;;;;6.80;4.43;;;;;;;10.55;100.00;96442.16;1023103;29;20500;-67
2021/06/14 02:18:17;;;;;;;7.50;4.53;;;;;;;10.52;100.00;96442.66;1022158;29;20271;-69
2021/06/14 02:18:48;;;;;;;7.95;4.38;;;;;;;10.54;100.00;96439.81;1022892;29;20543;-67
2021/06/14 02:19:21;;;;;;;6.03;4.60;;;;;;;10.45;100.00;96425.50;1020186;29;20350;-67
2021/06/14 02:19:51;;;;;;;10.75;4.40;;;;;;;10.52;100.00;96447.91;1023477;28;21052;-67
2021/06/14 02:20:22;;;;;;;8.80;4.47;;;;;;;10.46;100.00;96430.53;1024446;28;20289;-67
2021/06/14 02:20:52;;;;;;;10.05;4.95;;;;;;;10.47;100.00;96431.31;1022635;29;20047;-67
2021/06/14 02:21:23;;;;;;;9.70;4.22;;;;;;;10.50;100.00;96439.50;1018261;29;20464;-67
2021/06/14 02:21:56;;;;;;;6.45;4.25;;;;;;;10.49;100.00;96439.72;1023127;28;20027;-68
2021/06/14 02:22:27;;;;;;;8.15;4.35;;;;;;;10.47;100.00;96439.97;1023102;28;20756;-68
2021/06/14 02:22:57;;;;;;;8.98;4.63;;;;;;;10.49;100.00;96440.50;1027282;28;20421;-68
2021/06/14 02:23:30;;;;;;;10.50;4.57;;;;;;;10.50;100.00;96439.50;1027956;28;20023;-67
2021/06/14 02:24:01;;;;;;;9.90;4.35;;;;;;;10.45;100.00;96431.56;1018950;29;20016;-67
2021/06/14 02:24:31;;;;;;;7.32;4.32;;;;;;;10.49;100.00;96435.25;1019305;29;20259;-67
2021/06/14 02:25:06;;;;;;;7.88;4.55;;;;;;;10.49;100.00;96439.72;1022263;29;20063;-68
2021/06/14 02:25:37;;;;;;;6.32;4.43;;;;;;;10.49;100.00;96432.63;1023871;28;20023;-67
2021/06/14 02:26:07;;;;;;;7.45;4.15;;;;;;;10.50;100.00;96434.25;1027425;28;20289;-68
2021/06/14 02:26:39;;;;;;;11.55;4.60;;;;;;;10.51;100.00;96435.81;1027157;28;20026;-67
2021/06/14 02:27:13;;;;;;;9.70;4.70;;;;;;;10.53;100.00;96431.13;1023163;28;20046;-68
2021/06/14 02:27:44;;;;;;;6.20;4.45;;;;;;;10.51;100.00;96438.44;1027421;28;20332;-68
2021/06/14 02:28:23;;;;;;;6.28;4.55;;;;;;;10.48;100.00;96433.69;1027529;28;20274;-68
2021/06/14 02:28:54;;;;;;;6.10;4.50;;;;;;;10.45;100.00;96423.69;1028561;28;20054;-68
2021/06/14 02:29:24;;;;;;;6.47;4.70;;;;;;;10.49;100.00;96430.03;1034780;28;20315;-68
2021/06/14 02:29:54;;;;;;;8.48;4.65;;;;;;;10.48;100.00;96432.91;1035005;28;20030;-67
2021/06/14 02:30:25;;;;;;;4.80;3.85;;;;;;;10.46;100.00;96427.91;1030266;28;20062;-67
2021/06/14 02:31:02;;;;;;;7.65;4.40;;;;;;;10.46;100.00;96433.16;1026736;28;20133;-65
2021/06/14 02:31:33;;;;;;;7.60;4.65;;;;;;;10.47;100.00;96432.13;1026549;28;20282;-67